Latest Weather Observations for Grafton Airport

IDN60801

Issued at 11:04 am EDT Monday 2 February 2015 (issued every 30 minutes, with the page automatically refreshed every 10 minutes)

About weather observations | Map of weather stations | Latest weather observations for NSW | Other Formats
Station Details ID: 058161 Name: GRAFTON AIRPORT AWS Lat: -29.76 Lon: 153.03 Height: 25.09 m
Data from the previous 72 hours. | See also: Recent months for locations in New South Wales
Date/Time
EDT
Temp
°C
App
Temp
°C
Dew
Point
Rel
Hum
%
Delta-T
°C
Wind Press
QNH
hPa
Press
MSL
hPa
Rain
since 9 am
mm
Dir
 
Spd
km/h
Gust
km/h
Spd
kts
Gust
kts
02/11:00am 23.2 23.6 18.1 73 3.2 SSW 13 17 7 9 1012.8 1012.7 -
02/10:30am 22.7 23.2 18.3 76 2.8 S 13 20 7 11 1012.9 1012.8 0.0
02/10:00am 21.4 21.7 18.0 81 2.1 SW 13 17 7 9 1012.6 1012.5 0.0
02/09:30am 21.1 21.0 17.9 82 2.0 SSW 15 22 8 12 1012.6 1012.5 0.0
02/09:00am 21.0 20.0 17.6 81 2.1 S 19 24 10 13 1012.3 1012.2 0.2
02/08:30am 20.1 19.4 17.3 84 1.7 S 17 22 9 12 1012.1 1012.0 0.2
02/08:00am 20.5 19.5 17.5 83 1.8 S 19 24 10 13 1011.9 1011.8 0.2
02/07:30am 20.7 21.1 18.1 85 1.6 S 13 20 7 11 1011.3 1011.2 0.2
02/07:00am 20.4 20.9 18.3 88 1.3 S 13 15 7 8 1010.9 1010.8 0.2
02/06:30am 20.2 20.7 18.3 89 1.2 SSW 13 17 7 9 1010.3 1010.2 0.2
02/06:00am 20.3 22.0 18.6 90 1.1 SSW 7 9 4 5 1009.8 1009.7 0.2
02/05:30am 20.2 23.1 18.3 89 1.2 CALM 0 0 0 0 1009.6 1009.5 0.2
02/05:00am 20.4 23.4 18.5 89 1.2 CALM 0 0 0 0 1009.5 1009.4 0.2
02/04:30am 20.3 23.0 18.6 90 1.1 SSW 2 7 1 4 1009.3 1009.1 0.2
02/04:00am 20.6 23.6 18.5 88 1.3 CALM 0 0 0 0 1009.3 1009.1 0.2
02/03:30am 20.9 23.1 18.3 85 1.6 E 4 7 2 4 1009.3 1009.1 0.0
02/03:00am 21.0 24.0 18.4 85 1.6 CALM 0 6 0 3 1009.1 1008.9 0.0
02/02:30am 21.1 24.0 18.1 83 1.9 CALM 0 6 0 3 1009.3 1009.1 0.0
02/02:00am 21.0 22.2 18.2 84 1.7 S 9 13 5 7 1009.3 1009.1 0.0
02/01:30am 21.0 21.3 17.8 82 2.0 SSE 13 20 7 11 1009.1 1008.9 0.0
02/01:00am 21.3 20.9 18.1 82 2.0 SE 17 24 9 13 1009.3 1009.1 0.0
02/12:30am 21.7 21.1 18.5 82 2.0 S 19 30 10 16 1009.5 1009.4 0.0
02/12:00am 22.6 22.1 19.0 80 2.3 SSE 20 30 11 16 1009.4 1009.2 0.0
 
Date/Time
EDT
Temp
°C
App
Temp
°C
Dew
Point
Rel
Hum
%
Delta-T
°C
Wind Press
QNH
hPa
Press
MSL
hPa
Rain
since 9 am
mm
Dir
 
Spd
km/h
Gust
km/h
Spd
kts
Gust
kts
01/11:30pm 23.1 23.5 19.1 78 2.5 S 15 20 8 11 1009.1 1008.9 0.0
01/11:00pm 23.3 23.5 18.6 75 3.0 SSE 15 24 8 13 1008.9 1008.7 0.0
01/10:30pm 23.6 25.1 18.9 75 3.0 S 9 13 5 7 1008.8 1008.6 0.0
01/10:00pm 23.7 25.4 20.2 81 2.3 SSE 11 13 6 7 1008.4 1008.2 0.0
01/09:30pm 23.6 25.9 19.9 80 2.4 SSW 7 9 4 5 1008.2 1008.0 0.0
01/09:00pm 24.0 26.0 19.9 78 2.7 SSW 9 9 5 5 1008.2 1008.0 0.0
01/08:30pm 24.3 26.3 20.0 77 2.8 SSE 9 11 5 6 1007.9 1007.7 0.0
01/08:00pm 24.6 26.5 19.7 74 3.2 ESE 9 13 5 7 1007.6 1007.4 0.0
01/07:30pm 25.1 26.1 19.5 71 3.6 SE 13 24 7 13 1007.3 1007.1 0.0
01/07:00pm 26.1 26.6 19.2 65 4.4 SE 15 26 8 14 1006.7 1006.5 0.0
01/06:30pm 26.6 26.2 19.0 63 4.9 SE 19 28 10 15 1006.2 1006.0 0.0
01/06:00pm 27.3 27.0 19.1 61 5.3 ESE 19 26 10 14 1005.8 1005.6 0.0
01/05:30pm 28.2 28.3 19.1 57 5.9 SE 17 28 9 15 1005.4 1005.2 0.0
01/05:00pm 28.3 28.6 19.5 59 5.7 ESE 17 28 9 15 1005.5 1005.3 0.0
01/04:30pm 28.6 28.3 19.2 56 6.1 E 19 30 10 16 1005.5 1005.3 0.0
01/04:00pm 28.1 27.8 18.2 55 6.3 SE 17 24 9 13 1005.4 1005.2 0.0
01/03:30pm 29.4 29.6 18.5 52 7.0 ESE 15 28 8 15 1005.4 1005.2 0.0
01/03:00pm 28.4 28.6 17.6 52 6.9 ESE 13 22 7 12 1005.6 1005.4 0.0
01/02:30pm 28.2 28.3 18.3 55 6.3 ESE 15 24 8 13 1005.9 1005.7 0.0
01/02:00pm 29.4 29.8 18.2 51 7.2 SSE 13 20 7 11 1006.2 1006.0 0.0
01/01:30pm 28.4 29.2 19.1 57 6.0 SE 13 17 7 9 1006.7 1006.5 0.0
01/01:00pm 29.4 30.1 18.8 53 6.9 E 13 17 7 9 1006.9 1006.7 0.0
01/12:30pm 28.0 29.1 18.1 55 6.3 ESE 9 13 5 7 1007.3 1007.1 0.0
01/12:00pm 29.4 30.8 17.9 50 7.3 E 7 13 4 7 1007.6 1007.4 0.0
01/11:30am 29.4 32.0 20.0 57 6.2 NE 6 17 3 9 1007.8 1007.6 0.0
01/11:00am 27.4 28.8 18.7 59 5.6 ESE 9 17 5 9 1008.0 1007.8 0.0
01/10:30am 28.6 30.8 20.3 60 5.5 ESE 9 15 5 8 1008.3 1008.1 0.0
01/10:00am 26.4 27.5 18.8 63 4.9 SE 11 20 6 11 1008.2 1008.0 0.0
01/09:30am 25.1 27.0 19.0 69 3.9 SSW 7 15 4 8 1008.1 1007.9 0.0
01/09:00am 24.5 26.1 19.1 72 3.5 S 9 17 5 9 1008.1 1007.9 0.0
01/08:30am 23.5 25.0 18.8 75 3.0 S 9 13 5 7 1007.9 1007.7 0.0
01/08:00am 22.2 24.0 18.8 81 2.1 SW 7 11 4 6 1007.6 1007.4 0.0
01/07:30am 20.8 22.4 18.2 85 1.6 SW 7 9 4 5 1007.3 1007.1 0.0
01/07:00am 19.9 21.6 18.4 91 0.9 SSW 7 11 4 6 1007.1 1006.9 0.0
01/06:30am 19.6 21.3 18.4 93 0.7 SSW 7 11 4 6 1006.7 1006.5 0.0
01/06:00am 20.0 21.5 19.0 94 0.6 SSW 9 11 5 6 1006.4 1006.2 0.0
01/05:30am 19.9 21.4 18.9 94 0.6 SSW 9 11 5 6 1006.2 1006.0 0.0
01/05:00am 20.1 22.2 18.9 93 0.8 SW 6 9 3 5 1006.1 1005.9 0.0
01/04:30am 20.7 22.5 19.5 93 0.8 S 9 11 5 6 1006.2 1006.0 0.0
01/04:00am 21.1 23.3 19.6 91 1.0 SSW 7 9 4 5 1006.5 1006.3 0.0
01/03:30am 21.1 23.5 19.6 91 1.0 SW 6 9 3 5 1006.4 1006.2 0.0
01/03:00am 21.2 23.5 19.8 92 0.9 SSW 7 7 4 4 1006.4 1006.2 0.0
01/02:30am 21.0 23.2 19.6 92 0.9 SW 7 9 4 5 1006.6 1006.4 0.0
01/02:00am 21.0 23.3 19.8 93 0.8 SSW 7 9 4 5 1006.8 1006.6 0.0
01/01:30am 20.6 22.6 19.1 91 0.9 SSW 7 11 4 6 1006.8 1006.6 0.0
01/01:00am 20.9 22.8 19.0 89 1.2 SSW 7 9 4 5 1006.9 1006.7 0.0
01/12:30am 21.1 23.0 19.0 88 1.3 SSW 7 9 4 5 1007.6 1007.4 0.0
01/12:00am 20.6 21.4 18.2 86 1.5 SSW 11 13 6 7 1007.7 1007.5 0.0
 
Date/Time
EDT
Temp
°C
App
Temp
°C
Dew
Point
Rel
Hum
%
Delta-T
°C
Wind Press
QNH
hPa
Press
MSL
hPa
Rain
since 9 am
mm
Dir
 
Spd
km/h
Gust
km/h
Spd
kts
Gust
kts
31/11:30pm 21.0 23.9 18.2 84 1.7 CALM 0 0 0 0 1007.9 1007.7 0.0
31/11:00pm 20.7 23.1 17.1 80 2.2 CALM 0 6 0 3 1008.1 1007.9 0.0
31/10:30pm 21.7 22.4 17.1 75 2.8 SSW 9 11 5 6 1007.8 1007.6 0.0
31/10:00pm 21.6 22.6 16.8 74 2.9 SSW 7 11 4 6 1007.6 1007.4 0.0
31/09:30pm 22.1 22.8 16.1 69 3.6 S 7 9 4 5 1007.3 1007.1 0.0
31/09:00pm 22.6 23.2 15.9 66 4.1 SE 7 9 4 5 1007.1 1006.9 0.0
31/08:30pm 23.3 23.2 15.9 63 4.5 ESE 11 13 6 7 1006.8 1006.6 0.0
31/08:00pm 24.2 23.0 16.2 61 4.9 SSE 17 26 9 14 1006.1 1005.9 0.0
31/07:30pm 25.3 25.3 18.0 64 4.6 SE 15 24 8 13 1005.5 1005.3 0.0
31/07:00pm 26.0 25.1 16.8 57 5.7 SE 17 28 9 15 1004.7 1004.5 0.0
31/06:30pm 27.3 26.6 16.3 51 6.8 SSE 15 22 8 12 1003.8 1003.6 0.0
31/06:00pm 28.0 27.5 16.0 48 7.4 SSE 13 20 7 11 1003.2 1003.0 0.0
31/05:30pm 28.0 26.8 16.0 48 7.4 S 17 22 9 12 1003.0 1002.8 0.0
31/05:00pm 27.3 25.6 16.3 51 6.8 SE 20 30 11 16 1003.2 1003.0 0.0
31/04:30pm 27.0 25.9 17.2 55 6.1 ESE 19 28 10 15 1003.4 1003.2 0.0
31/04:00pm 26.0 26.3 17.9 61 5.1 ESE 13 20 7 11 1003.6 1003.4 0.0
31/03:44pm 26.0 23.1 17.1 58 5.5 SSE 28 54 15 29 1003.3 1003.1 0.0
31/03:40pm 27.2 25.9 19.0 61 5.3 SE 24 41 13 22 1003.3 1003.1 0.0
31/03:30pm 32.3 33.8 20.5 49 7.9 NE 13 20 7 11 1003.2 1003.0 0.0
31/03:00pm 31.6 31.4 17.5 43 9.0 N 15 22 8 12 1002.8 1002.6 0.0
31/02:30pm 31.4 32.4 19.4 49 7.9 N 13 19 7 10 1003.1 1002.9 0.0
31/02:00pm 31.1 31.9 19.1 48 7.8 N 13 20 7 11 1003.8 1003.6 0.0
31/01:30pm 30.7 31.9 19.1 50 7.6 NNE 11 17 6 9 1004.4 1004.2 0.0
31/01:00pm 29.5 30.6 18.0 50 7.4 NNE 9 17 5 9 1004.9 1004.7 0.0
31/12:30pm 28.8 30.4 17.0 49 7.4 W 4 11 2 6 1005.4 1005.2 0.0
31/12:00pm 27.9 29.8 18.6 57 6.0 NE 6 11 3 6 1005.9 1005.7 0.0
31/11:30am 27.5 29.9 19.6 62 5.1 N 6 11 3 6 1006.2 1006.0 0.0
31/11:00am 26.6 28.6 18.7 62 5.1 NNE 6 11 3 6 1006.5 1006.3 0.0
31/10:30am 26.3 28.4 19.4 66 4.5 WNW 7 11 4 6 1006.9 1006.7 0.0
31/10:00am 25.6 27.8 19.3 68 4.1 NNE 6 11 3 6 1007.2 1007.0 0.0
31/09:30am 24.7 26.5 18.2 67 4.1 S 6 9 3 5 1007.4 1007.2 0.0
31/09:00am 23.2 26.3 18.7 76 2.9 CALM 0 2 0 1 1007.5 1007.3 1.2
31/08:30am 22.1 24.1 18.7 81 2.1 NW 6 9 3 5 1007.6 1007.4 1.2
31/08:00am 20.8 23.9 18.7 88 1.3 CALM 0 0 0 0 1007.3 1007.1 1.2
31/07:30am 19.7 21.8 18.2 91 0.9 SW 4 7 2 4 1007.3 1007.1 1.2
31/07:00am 19.2 22.2 18.5 96 0.4 CALM 0 0 0 0 1007.2 1007.0 1.2
31/06:30am 18.8 21.7 18.1 96 0.4 CALM 0 0 0 0 1006.9 1006.7 1.2
31/06:00am 18.9 21.4 18.2 96 0.4 SSW 2 7 1 4 1006.4 1006.2 1.2
31/05:30am 19.0 20.9 18.5 97 0.3 SSW 6 7 3 4 1006.1 1005.9 1.2
31/05:00am 18.7 20.4 18.0 96 0.4 SSW 6 9 3 5 1005.7 1005.5 1.2
31/04:30am 19.0 20.7 18.5 97 0.3 SSW 7 9 4 5 1005.7 1005.5 1.2
31/04:00am 18.8 21.7 18.1 96 0.4 CALM 0 0 0 0 1005.5 1005.3 1.2
31/03:30am 18.8 21.5 17.8 94 0.6 CALM 0 4 0 2 1005.5 1005.3 1.2
31/03:00am 19.1 20.8 18.4 96 0.4 S 7 9 4 5 1005.7 1005.5 1.2
31/02:30am 19.6 21.6 18.8 95 0.5 S 6 7 3 4 1005.5 1005.3 1.2
31/02:00am 19.7 21.2 19.0 96 0.4 S 9 11 5 6 1005.7 1005.5 1.2
31/01:30am 19.7 21.8 18.9 95 0.5 S 6 11 3 6 1005.5 1005.3 1.2
31/01:00am 19.8 23.0 18.8 94 0.6 CALM 0 0 0 0 1005.7 1005.5 1.2
31/12:30am 20.3 23.6 19.0 92 0.8 CALM 0 0 0 0 1006.1 1005.9 1.2
31/12:00am 20.5 22.6 19.0 91 0.9 SSW 6 7 3 4 1006.2 1006.0 1.2
 
Date/Time
EDT
Temp
°C
App
Temp
°C
Dew
Point
Rel
Hum
%
Delta-T
°C
Wind Press
QNH
hPa
Press
MSL
hPa
Rain
since 9 am
mm
Dir
 
Spd
km/h
Gust
km/h
Spd
kts
Gust
kts
30/11:30pm 20.8 22.8 19.1 90 1.1 SSW 7 9 4 5 1006.4 1006.2 1.2
30/11:00pm 21.2 23.2 19.1 88 1.3 SSW 7 7 4 4 1006.4 1006.2 1.2
30/10:30pm 21.9 24.0 19.3 85 1.7 S 7 7 4 4 1006.5 1006.3 1.2
30/10:00pm 22.6 24.2 19.2 81 2.2 SSE 9 11 5 6 1006.5 1006.3 1.2
30/09:30pm 23.1 24.8 19.3 79 2.4 SSE 9 11 5 6 1006.3 1006.1 1.2
30/09:00pm 23.2 24.8 19.1 78 2.6 SSE 9 9 5 5 1006.1 1005.9 1.2
30/08:30pm 23.7 25.2 19.0 75 3.0 SE 9 11 5 6 1005.9 1005.7 1.2
30/08:00pm 24.2 25.6 18.6 71 3.6 E 9 13 5 7 1005.5 1005.3 1.2
30/07:30pm 24.9 26.5 18.3 66 4.2 ESE 7 15 4 8 1005.3 1005.1 1.2
30/07:00pm 25.6 26.5 18.3 64 4.6 E 11 17 6 9 1004.9 1004.7 1.2
30/06:30pm 26.5 25.9 18.4 61 5.2 NE 19 24 10 13 1004.3 1004.1 1.2
30/06:00pm 27.0 26.4 18.8 60 5.3 NE 20 28 11 15 1004.1 1003.9 1.2
30/05:30pm 27.7 27.2 19.0 59 5.6 NE 20 32 11 17 1004.0 1003.8 1.2
30/05:00pm 27.9 26.8 18.6 57 6.0 NE 22 28 12 15 1004.2 1004.0 1.2
30/04:30pm 28.3 27.8 19.0 57 6.0 NNE 20 28 11 15 1004.5 1004.3 1.2
30/04:00pm 27.1 25.9 17.6 56 6.0 NNE 20 30 11 16 1004.8 1004.6 1.2
30/03:30pm 27.9 27.4 16.8 50 6.9 NNE 15 19 8 10 1005.0 1004.8 1.2
30/03:18pm 27.4 29.0 17.8 55 6.1 NNW 6 15 3 8 1005.1 1004.9 1.2
30/03:00pm 25.9 26.6 17.0 58 5.5 N 9 17 5 9 1005.5 1005.3 0.8
30/02:59pm 26.1 26.1 15.2 51 6.6 N 9 17 5 9 1005.5 1005.3 0.6
30/02:30pm 28.2 27.7 16.8 50 7.1 NNE 15 22 8 12 1005.6 1005.4 0.0
30/02:00pm 28.2 27.4 16.1 47 7.5 NNE 15 22 8 12 1006.2 1006.0 0.0
30/01:30pm 27.5 26.8 15.5 48 7.3 N 13 20 7 11 1006.7 1006.5 0.0
30/01:00pm 27.1 25.8 15.8 50 6.9 NNE 17 24 9 13 1007.3 1007.1 0.0
30/12:30pm 26.5 25.3 16.1 52 6.4 NNE 17 26 9 14 1007.7 1007.5 0.0
30/12:00pm 25.8 24.8 14.6 50 6.7 NE 13 19 7 10 1008.2 1008.0 0.0
30/11:30am 25.3 24.1 14.1 50 6.6 NNE 13 20 7 11 1008.6 1008.4 0.0

Other Formats:

Comma delimited format used in spreadsheet applications
http://www.bom.gov.au/fwo/IDN60801/IDN60801.95570.axf

JavaScript Object Notation format (JSON) in row-major order
http://www.bom.gov.au/fwo/IDN60801/IDN60801.95570.json